Aérodrome :
LOGIN :

S'inscrire | Disclaimer

   EN    FR    IT 

 










Légende :    VFR   VFR Marginal   IFR   IFR Intensif   IFR Très Intensif
Visi : 
Plafond : 
>= 8 km
>= 3000ft
5 à 8 km
1000 à 3000 ft
1500m à 5 km
500 à 1000 ft
800 à 1500m
200 à 500 ft
< 800m
< 200 ft
Symboles :   Orages  Brouillard  Fortes neiges  Fortes précipitations  Vent > 20 kt
SIGMETs :   Divers  Orages  Givrage  Turbulence  Onde Orograph.  Cendres Volcan.






- Altitude de l'aérodrome : 3 ft
- Code IATA : LWR


EHLW - Leuuwarden Air Base

DERNIER METAR :
  • 131155Z AUTO 26012KT 230V290 9999 SCT180 09/05 Q0996 BLU 26013KT 9999 SCT022 TEMPO 24015G25KT 4000 SHRA FEW012 SCT018CB BKN022

METARs EXPIRÉS :
  • 131125Z AUTO 26014KT 230V290 9999 NCD 10/06 Q0996 BLU 26013KT 9999 SCT022 TEMPO 24015G25KT 4000 SHRA FEW012 SCT018CB BKN022
  • 131115Z AUTO 26015KT 230V290 9999 FEW022 SCT031 10/06 Q0996 BLU 26013KT 9999 SCT022 TEMPO 24015G25KT 4000 SHRA FEW012 SCT018CB BKN022
  • 131105Z AUTO 26013KT 9999 SCT022 SCT027 BKN031 10/06 Q0996 WHT 26013KT 9999 SCT022 TEMPO 24015G25KT 4000 SHRA FEW012 SCT018CB BKN022
  • 131055Z AUTO 26013KT 9999 FEW025 SCT210 10/06 Q0996 BLU 24008KT 9999 SCT025 TEMPO 24015G25KT 4000 SHRA FEW012 SCT018CB BKN022
  • 131042Z AUTO 26012KT 9999 SCT023 10/06 Q0996 WHT 24008KT 9999 SCT025 TEMPO 24015G25KT 4000 SHRA FEW012 SCT018CB BKN022
  • 131030Z AUTO 26011KT 9999 NCD 09/06 Q0995 BLU 24008KT 9999 SCT025 TEMPO 24015G25KT 4000 SHRA FEW012 SCT018CB BKN022
  • 131025Z AUTO 26012KT 9999 FEW039 SCT050 09/06 Q0995 BLU 24008KT 9999 SCT025 BKN040 TEMPO 24015G25KT 4000 SHRA FEW012 SCT018CB BKN022
  • 130955Z AUTO 25010KT 9999 FEW025 SCT040 BKN045 09/06 Q0995 BLU 24008KT 9999 SCT025 BKN040 TEMPO 24015G25KT 4000 SHRA FEW012 SCT018CB BKN022
  • 130925Z AUTO 21008KT 9999 NCD 08/07 Q0995 BLU 21008KT 9999 SCT025 BKN040 TEMPO 24015G25KT 4000 SHRA FEW012 SCT018CB BKN022
  • 130916Z AUTO 22008KT 9999 -UP FEW022 SCT026 BKN054 07/06 Q0995 BLU 23011KT 9999 SCT025 BKN045 TEMPO 24015G25KT 4000 SHRA FEW010 SCT015CB BKN020
  • 130908Z AUTO 21008KT 9999 -RA FEW018 SCT025 BKN031 07/06 Q0995 BLU 23011KT 9999 SCT025 BKN045 TEMPO 24015G25KT 4000 SHRA FEW010 SCT015CB BKN020

TAF COR TAF EHLW
Valide du 13 à 10h jusqu'au 13 à 22h UTC


130955Z 1310/1322 24012KT 9999 SCT020 BKN040
TEMPO 1310/1322 4500 SHRA FEW010 SCT018CB BKN025
PROB30
TEMPO 1310/1314 20016G28KT 3000 TSRAGS SCT008 SCT015CB BKN020
BECMG 1315/1318 19006KT



MET'MAP, la Météo Aéronautique d'un coup d'oeil ! - Copyright ORBIFLY Décembre 2007 - Disclaimer

ORBIFLY MET'MAP TEAM :

Programmation & Développement : Alexandra Zaïnal
Conception & Développement : Baudouin d'Aumeries
Co-Programmation & Développement : Marc-Olivier Méhu
Soutien technique & logistique : Manuel Goepfert

Contact : metmap@orbifly.com




SOURCES & CREDITS :

   NOAA